createdAt,value
2023-03-22T00:04:27.984Z,16.80
2023-03-22T00:09:29.691Z,16.80
2023-03-22T00:14:31.363Z,16.70
2023-03-22T00:19:33.868Z,16.70
2023-03-22T00:24:35.769Z,16.70
2023-03-22T00:29:37.490Z,16.70
2023-03-22T00:34:39.207Z,16.70
2023-03-22T00:39:40.932Z,16.70
2023-03-22T00:44:42.818Z,16.70
2023-03-22T00:49:44.755Z,16.70
2023-03-22T00:54:46.587Z,16.60
2023-03-22T00:59:48.814Z,16.60
2023-03-22T01:04:50.505Z,16.60
2023-03-22T01:09:52.255Z,16.60
2023-03-22T01:14:53.930Z,16.60
2023-03-22T01:19:55.600Z,16.60
2023-03-22T01:24:57.242Z,16.60
2023-03-22T01:29:59.165Z,16.60
2023-03-22T01:35:00.789Z,16.60
2023-03-22T01:40:03.340Z,16.60
2023-03-22T01:45:13.858Z,16.60
2023-03-22T01:50:16.762Z,16.60
2023-03-22T01:55:22.756Z,16.60
2023-03-22T02:00:24.463Z,16.60
2023-03-22T02:05:26.437Z,16.60
2023-03-22T02:10:28.257Z,16.60
2023-03-22T02:15:33.927Z,16.60
2023-03-22T02:20:40.109Z,16.50
2023-03-22T02:26:00.424Z,16.50
2023-03-22T02:31:08.040Z,16.50
2023-03-22T02:36:21.810Z,16.50
2023-03-22T02:41:41.827Z,16.50
2023-03-22T02:46:46.641Z,16.50
2023-03-22T02:51:58.501Z,16.50
2023-03-22T02:57:04.168Z,16.50
2023-03-22T03:02:08.276Z,16.50
2023-03-22T03:07:11.570Z,16.50
2023-03-22T03:12:14.784Z,16.50
2023-03-22T03:17:24.587Z,16.40
2023-03-22T03:22:42.664Z,16.40
2023-03-22T03:27:51.015Z,16.40
2023-03-22T03:33:00.391Z,16.40
2023-03-22T03:38:09.955Z,16.40
2023-03-22T03:43:12.364Z,16.40
2023-03-22T03:48:19.970Z,16.40
2023-03-22T03:53:21.769Z,16.40
2023-03-22T03:58:23.337Z,16.40
2023-03-22T04:03:24.995Z,16.40
2023-03-22T04:08:27.328Z,16.40
2023-03-22T04:13:29.877Z,16.40
2023-03-22T04:18:32.274Z,16.40
2023-03-22T04:23:33.974Z,16.30
2023-03-22T04:28:35.567Z,16.40
2023-03-22T04:33:39.446Z,16.40
2023-03-22T04:38:41.243Z,16.30
2023-03-22T04:43:46.897Z,16.40
2023-03-22T06:07:33.116Z,16.70
2023-03-22T06:12:34.954Z,16.80
2023-03-22T06:17:36.646Z,16.90
2023-03-22T06:22:38.517Z,16.90
2023-03-22T06:27:40.328Z,16.80
2023-03-22T06:32:42.030Z,16.80
2023-03-22T06:37:43.971Z,16.80
2023-03-22T06:42:46.106Z,16.80
2023-03-22T06:47:47.806Z,16.70
2023-03-22T06:52:49.451Z,16.70
2023-03-22T06:57:51.069Z,16.70
2023-03-22T07:02:52.900Z,16.70
2023-03-22T07:07:54.610Z,16.70
2023-03-22T07:12:56.428Z,16.60
2023-03-22T07:17:59.404Z,16.60
2023-03-22T07:23:01.100Z,16.60
2023-03-22T07:28:02.977Z,16.60
2023-03-22T07:33:05.117Z,16.60
2023-03-22T07:38:06.880Z,16.60
2023-03-22T07:43:11.969Z,16.60
2023-03-22T07:48:13.742Z,16.60
2023-03-22T07:53:16.264Z,16.50
2023-03-22T07:58:18.010Z,16.50
2023-03-22T08:03:19.906Z,16.50
2023-03-22T08:08:21.605Z,16.50
2023-03-22T08:13:23.774Z,16.50
2023-03-22T08:18:25.822Z,16.50
2023-03-22T08:23:40.548Z,16.50
2023-03-22T08:28:42.944Z,16.50
2023-03-22T08:33:44.826Z,16.50
2023-03-22T08:38:46.615Z,16.50
2023-03-22T08:43:48.184Z,16.50
2023-03-22T08:48:52.839Z,16.50
2023-03-22T08:53:54.481Z,16.50
2023-03-22T08:58:56.229Z,16.50
2023-03-22T09:03:57.952Z,16.50
2023-03-22T09:08:59.816Z,16.60
2023-03-22T09:14:01.544Z,16.60
2023-03-22T09:19:03.292Z,16.60
2023-03-22T09:24:05.129Z,16.70
2023-03-22T09:29:07.160Z,16.90
2023-03-22T09:34:08.733Z,17.10
2023-03-22T09:39:10.330Z,17.30
2023-03-22T09:44:17.981Z,17.40
2023-03-22T09:49:22.654Z,17.60
2023-03-22T09:54:30.680Z,17.80
2023-03-22T09:59:48.444Z,17.90
2023-03-22T10:04:55.945Z,18.00
2023-03-22T10:10:06.657Z,18.00
2023-03-22T10:15:16.207Z,17.90
2023-03-22T10:20:29.414Z,17.90
2023-03-22T10:25:34.017Z,17.90
2023-03-22T10:30:37.780Z,17.90
2023-03-22T10:35:40.362Z,17.80
2023-03-22T10:40:45.582Z,17.80
2023-03-22T10:45:47.310Z,17.70
2023-03-22T10:50:49.022Z,17.70
2023-03-22T10:55:50.917Z,17.70
2023-03-22T11:00:54.335Z,17.70
2023-03-22T11:06:05.302Z,17.70
2023-03-22T11:11:07.865Z,17.60
2023-03-22T11:16:09.699Z,17.70
2023-03-22T11:21:12.025Z,17.80
2023-03-22T11:26:14.970Z,17.80
2023-03-22T11:31:18.084Z,17.80
2023-03-22T11:36:19.813Z,17.90
2023-03-22T11:41:40.013Z,17.90
2023-03-22T11:46:48.917Z,17.90
2023-03-22T11:51:52.068Z,17.90
2023-03-22T11:56:56.068Z,17.90
2023-03-22T12:02:04.992Z,18.00
2023-03-22T12:07:13.494Z,18.10
2023-03-22T12:12:23.198Z,18.20
2023-03-22T12:17:44.000Z,18.30
2023-03-22T12:22:51.307Z,18.30
2023-03-22T12:27:58.130Z,18.30
2023-03-22T12:33:03.333Z,18.20
2023-03-22T12:38:10.340Z,18.20
2023-03-22T12:43:16.336Z,18.10
2023-03-22T12:48:27.576Z,18.10
2023-03-22T12:53:32.630Z,18.10
2023-03-22T12:58:34.207Z,18.00
2023-03-22T13:03:40.323Z,18.00
2023-03-22T13:09:00.978Z,18.00
2023-03-22T13:14:02.711Z,18.00
2023-03-22T13:19:24.272Z,18.00
2023-03-22T13:24:26.774Z,17.90
2023-03-22T13:29:38.172Z,17.90
2023-03-22T13:34:45.098Z,17.90
2023-03-22T13:39:51.931Z,17.90
2023-03-22T13:45:00.020Z,17.90
2023-03-22T13:50:06.120Z,17.90
2023-03-22T13:55:35.885Z,17.80
2023-03-22T14:00:40.619Z,17.80
2023-03-22T14:05:44.893Z,17.90
2023-03-22T14:10:49.925Z,17.90
2023-03-22T14:15:53.312Z,17.90
2023-03-22T14:20:59.479Z,17.90
